createdAt,value
2019-03-05T00:05:09.177Z,4.83
2019-03-05T00:10:33.123Z,4.50
2019-03-05T00:15:57.557Z,4.70
2019-03-05T00:21:22.278Z,4.90
2019-03-05T00:26:46.868Z,5.00
2019-03-05T00:32:11.505Z,4.00
2019-03-05T00:37:47.693Z,5.33
2019-03-05T00:43:39.648Z,4.80
2019-03-05T00:49:40.641Z,4.67
2019-03-05T00:55:31.080Z,5.13
2019-03-05T01:01:36.455Z,4.53
2019-03-05T01:07:00.254Z,4.50
2019-03-05T01:12:25.168Z,4.47
2019-03-05T01:17:49.311Z,4.40
2019-03-05T01:23:14.623Z,4.50
2019-03-05T01:28:38.673Z,4.40
2019-03-05T01:34:16.395Z,4.77
2019-03-05T01:39:57.776Z,4.47
2019-03-05T01:45:22.538Z,4.97
2019-03-05T01:50:48.232Z,4.70
2019-03-05T01:56:12.043Z,4.27
2019-03-05T02:01:36.527Z,4.60
2019-03-05T02:07:01.335Z,4.13
2019-03-05T02:12:25.104Z,4.03
2019-03-05T02:17:48.863Z,4.53
2019-03-05T02:23:38.841Z,4.80
2019-03-05T02:29:47.105Z,4.03
2019-03-05T02:35:31.130Z,4.60
2019-03-05T02:41:41.481Z,5.33
2019-03-05T02:47:14.864Z,4.27
2019-03-05T02:53:17.739Z,7.00
2019-03-05T02:58:41.639Z,4.20
2019-03-05T03:04:10.394Z,4.73
2019-03-05T03:10:12.962Z,4.30
2019-03-05T03:15:37.100Z,3.30
2019-03-05T03:21:01.409Z,4.00
2019-03-05T03:26:26.127Z,3.40
2019-03-05T03:31:50.454Z,2.20
2019-03-05T03:37:15.068Z,3.20
2019-03-05T03:42:39.534Z,2.83
2019-03-05T03:48:03.412Z,3.20
2019-03-05T03:53:28.172Z,3.33
2019-03-05T03:58:51.933Z,2.20
2019-03-05T04:04:16.999Z,2.87
2019-03-05T04:09:40.812Z,2.47
2019-03-05T04:15:05.264Z,1.93
2019-03-05T04:20:34.485Z,3.27
2019-03-05T04:25:58.651Z,3.30
2019-03-05T04:31:23.382Z,2.63
2019-03-05T04:36:47.968Z,3.20
2019-03-05T04:42:12.371Z,3.87
2019-03-05T04:47:37.518Z,3.20
2019-03-05T04:53:02.223Z,3.10
2019-03-05T04:58:26.059Z,2.67
2019-03-05T05:03:51.152Z,3.97
2019-03-05T05:09:15.673Z,3.67
2019-03-05T05:14:40.301Z,3.93
2019-03-05T05:20:05.474Z,4.50
2019-03-05T05:25:29.221Z,4.20
2019-03-05T05:30:53.884Z,4.33
2019-03-05T05:36:18.585Z,4.93
2019-03-05T05:41:43.460Z,5.37
2019-03-05T05:47:08.175Z,5.00
2019-03-05T05:52:32.906Z,4.47
2019-03-05T05:57:57.853Z,5.90
2019-03-05T06:03:21.617Z,6.03
2019-03-05T06:08:45.316Z,5.63
2019-03-05T06:14:08.852Z,5.50
2019-03-05T06:19:36.256Z,5.23
2019-03-05T06:25:02.080Z,4.27
2019-03-05T06:30:26.716Z,5.63
2019-03-05T06:35:51.202Z,4.90
2019-03-05T06:41:15.562Z,5.23
2019-03-05T06:46:40.333Z,5.07
2019-03-05T06:52:05.086Z,5.37
2019-03-05T06:57:29.429Z,5.33
2019-03-05T07:02:54.138Z,4.47
2019-03-05T07:08:18.896Z,5.10
2019-03-05T07:13:42.678Z,5.03
2019-03-05T07:19:13.980Z,4.77
2019-03-05T07:24:46.508Z,4.40
2019-03-05T07:30:21.170Z,3.90
2019-03-05T07:35:45.753Z,4.03
2019-03-05T07:41:10.646Z,3.70
2019-03-05T07:46:35.126Z,4.30
2019-03-05T07:51:59.880Z,3.90
2019-03-05T07:57:23.739Z,4.23
2019-03-05T08:02:48.278Z,4.47
2019-03-05T08:08:49.299Z,3.60
2019-03-05T08:14:47.004Z,3.20
2019-03-05T08:20:11.254Z,3.50
2019-03-05T08:25:35.684Z,3.23
2019-03-05T08:31:00.465Z,2.67
2019-03-05T08:36:24.218Z,3.27
2019-03-05T08:41:47.812Z,3.80
2019-03-05T08:47:12.258Z,3.67
2019-03-05T08:52:36.758Z,4.50
2019-03-05T08:58:01.177Z,4.50
2019-03-05T09:03:25.209Z,3.37
2019-03-05T09:08:49.708Z,2.90
2019-03-05T09:14:13.344Z,3.37
2019-03-05T09:19:37.832Z,3.57
2019-03-05T09:25:02.615Z,2.93
2019-03-05T09:30:27.280Z,2.80
2019-03-05T09:35:52.015Z,2.67
2019-03-05T09:41:16.408Z,2.47
2019-03-05T09:46:41.144Z,3.47
2019-03-05T09:52:05.904Z,3.10
2019-03-05T09:57:30.641Z,3.20
2019-03-05T10:02:54.877Z,3.20
2019-03-05T10:08:19.387Z,3.87
2019-03-05T10:13:43.926Z,3.70
2019-03-05T10:19:11.812Z,3.10
2019-03-05T10:24:36.121Z,3.13
2019-03-05T10:29:59.988Z,3.57
2019-03-05T10:35:26.167Z,3.13
2019-03-05T10:40:50.753Z,3.57
2019-03-05T10:46:15.280Z,3.50
2019-03-05T10:51:39.095Z,3.90
2019-03-05T10:57:03.725Z,4.00
2019-03-05T11:02:28.879Z,3.53
2019-03-05T11:07:53.641Z,3.20
2019-03-05T11:13:17.786Z,3.50
2019-03-05T11:18:41.738Z,3.43
2019-03-05T11:24:06.592Z,2.87
2019-03-05T11:29:31.091Z,3.23
2019-03-05T11:34:56.096Z,3.20
2019-03-05T11:40:21.511Z,3.23
2019-03-05T11:45:46.705Z,3.63
2019-03-05T11:51:11.208Z,3.50
2019-03-05T11:56:35.624Z,3.30
2019-03-05T12:02:00.392Z,2.97
2019-03-05T12:07:24.236Z,2.67
2019-03-05T12:12:48.728Z,3.13
2019-03-05T12:18:13.035Z,2.90
2019-03-05T12:23:37.975Z,2.90
2019-03-05T12:29:03.202Z,2.87
2019-03-05T12:34:27.857Z,3.93
2019-03-05T12:39:52.420Z,4.33
2019-03-05T12:45:17.619Z,4.03
2019-03-05T12:50:41.679Z,3.43
2019-03-05T12:56:05.586Z,4.10
2019-03-05T13:01:29.943Z,3.17
2019-03-05T13:06:54.399Z,3.47
2019-03-05T13:12:19.109Z,2.80
2019-03-05T13:17:47.029Z,3.00
2019-03-05T13:23:10.595Z,2.63
2019-03-05T13:28:36.753Z,3.40
2019-03-05T13:34:01.289Z,3.40
2019-03-05T13:39:26.240Z,3.50
2019-03-05T13:44:50.176Z,3.67
2019-03-05T13:50:44.011Z,3.13
2019-03-05T13:56:31.009Z,3.33
2019-03-05T14:01:55.159Z,3.67
2019-03-05T14:08:02.976Z,3.63
2019-03-05T14:13:26.924Z,3.33
2019-03-05T14:18:50.793Z,4.03
2019-03-05T14:24:15.439Z,4.67
2019-03-05T14:29:39.528Z,5.07
2019-03-05T14:35:09.071Z,4.40
2019-03-05T14:40:34.167Z,4.33
2019-03-05T14:45:59.075Z,3.37
2019-03-05T14:51:22.666Z,3.70
2019-03-05T14:56:46.258Z,3.13
2019-03-05T15:02:11.142Z,2.70
2019-03-05T15:07:34.848Z,2.80
2019-03-05T15:12:58.753Z,2.50
2019-03-05T15:18:22.718Z,2.57
2019-03-05T15:23:47.455Z,2.80
2019-03-05T15:29:12.023Z,3.30
2019-03-05T15:34:35.663Z,3.63
2019-03-05T15:40:00.377Z,3.90
2019-03-05T15:45:24.201Z,3.90
2019-03-05T15:50:48.786Z,4.10
2019-03-05T15:56:13.057Z,4.63
2019-03-05T16:01:37.811Z,3.97
2019-03-05T16:07:02.023Z,4.50
2019-03-05T16:12:25.855Z,3.93
2019-03-05T16:17:49.781Z,3.47
2019-03-05T16:23:13.615Z,3.00
2019-03-05T16:28:39.338Z,2.77
2019-03-05T16:34:29.897Z,3.50
2019-03-05T16:40:05.247Z,3.27
2019-03-05T16:45:42.253Z,3.60
2019-03-05T16:51:11.530Z,3.10
2019-03-05T16:56:54.019Z,3.30
2019-03-05T17:02:42.525Z,3.53
2019-03-05T17:08:29.218Z,3.30
2019-03-05T17:13:53.566Z,3.33
2019-03-05T17:19:17.651Z,2.97
2019-03-05T17:24:42.309Z,3.27
2019-03-05T17:30:10.857Z,4.63
2019-03-05T17:35:35.461Z,3.90
2019-03-05T17:41:00.057Z,4.23
2019-03-05T17:46:24.858Z,3.50
2019-03-05T17:51:49.867Z,3.90
2019-03-05T17:57:14.806Z,4.13
2019-03-05T18:02:39.054Z,4.37
2019-03-05T18:08:03.005Z,4.47
2019-03-05T18:13:27.267Z,4.50
2019-03-05T18:18:51.035Z,4.50
2019-03-05T18:24:14.731Z,7.47
2019-03-05T18:29:39.315Z,10.87
2019-03-05T18:35:04.239Z,9.20
2019-03-05T18:40:30.381Z,6.77
2019-03-05T18:45:55.188Z,5.70
2019-03-05T18:51:19.847Z,5.30
2019-03-05T18:56:43.728Z,6.30
2019-03-05T19:02:07.921Z,6.70
2019-03-05T19:07:32.551Z,6.10
2019-03-05T19:12:56.894Z,6.10
2019-03-05T19:18:20.629Z,5.97
2019-03-05T19:23:45.112Z,6.30
2019-03-05T19:29:09.814Z,7.60
2019-03-05T19:34:34.421Z,5.27
2019-03-05T19:39:58.749Z,6.37
2019-03-05T19:45:24.075Z,5.90
2019-03-05T19:50:49.080Z,5.80
2019-03-05T19:56:13.546Z,5.73
2019-03-05T20:01:41.000Z,6.80
2019-03-05T20:07:05.061Z,5.83
2019-03-05T20:12:31.265Z,6.37
2019-03-05T20:17:58.979Z,6.47
2019-03-05T20:23:20.699Z,6.70
2019-03-05T20:28:44.482Z,6.30
2019-03-05T20:34:09.004Z,6.47
2019-03-05T20:39:34.556Z,6.27
2019-03-05T20:44:58.283Z,7.37
2019-03-05T20:50:22.389Z,7.13
2019-03-05T20:55:47.735Z,6.47
2019-03-05T21:01:13.148Z,6.60
2019-03-05T21:06:36.762Z,6.97
2019-03-05T21:12:00.747Z,7.40
2019-03-05T21:17:25.662Z,7.03
2019-03-05T21:22:50.988Z,6.77
2019-03-05T21:28:14.844Z,7.70
2019-03-05T21:33:39.530Z,6.63
2019-03-05T21:39:05.566Z,7.30
2019-03-05T21:44:30.246Z,8.27
2019-03-05T21:49:53.954Z,8.00
2019-03-05T21:55:18.381Z,7.87
2019-03-05T22:00:42.746Z,8.23
2019-03-05T22:06:08.671Z,7.80
2019-03-05T22:11:32.585Z,8.63
2019-03-05T22:16:56.292Z,8.27
2019-03-05T22:22:21.125Z,9.20
2019-03-05T22:27:46.207Z,8.87
2019-03-05T22:33:09.889Z,9.33
2019-03-05T22:38:34.547Z,10.63
2019-03-05T22:43:59.519Z,10.10
2019-03-05T22:49:23.648Z,10.43
2019-03-05T22:54:50.110Z,10.50
2019-03-05T23:00:50.078Z,10.10
2019-03-05T23:06:16.449Z,9.63
2019-03-05T23:11:41.204Z,10.03
2019-03-05T23:17:06.632Z,10.00
2019-03-05T23:22:30.562Z,10.47
2019-03-05T23:27:55.201Z,11.07
2019-03-05T23:33:19.958Z,11.27
2019-03-05T23:38:44.648Z,10.20
2019-03-05T23:44:08.508Z,10.50
2019-03-05T23:49:33.274Z,9.63
2019-03-05T23:54:57.081Z,9.60
